createdAt,value
2022-11-27T00:02:13.413Z,-0.11
2022-11-27T00:04:58.025Z,-0.12
2022-11-27T00:07:42.582Z,-0.10
2022-11-27T00:10:27.016Z,-0.09
2022-11-27T00:13:11.756Z,-0.10
2022-11-27T00:15:57.045Z,-0.08
2022-11-27T00:18:41.947Z,-0.08
2022-11-27T00:21:29.174Z,-0.11
2022-11-27T00:24:14.078Z,-0.11
2022-11-27T00:26:58.965Z,-0.11
2022-11-27T00:29:43.570Z,-0.11
2022-11-27T00:32:27.930Z,-0.11
2022-11-27T00:35:12.546Z,-0.09
2022-11-27T00:37:57.562Z,-0.09
2022-11-27T00:40:42.070Z,-0.10
2022-11-27T00:43:26.929Z,-0.08
2022-11-27T00:46:16.709Z,-0.07
2022-11-27T00:49:03.749Z,-0.07
2022-11-27T00:51:48.566Z,-0.08
2022-11-27T00:54:33.437Z,-0.09
2022-11-27T00:57:18.187Z,-0.08
2022-11-27T01:00:04.235Z,-0.08
2022-11-27T01:02:49.271Z,-0.12
2022-11-27T01:05:37.351Z,-0.10
2022-11-27T01:08:22.971Z,-0.08
2022-11-27T01:11:12.793Z,-0.09
2022-11-27T01:14:00.852Z,-0.08
2022-11-27T01:16:45.699Z,-0.08
2022-11-27T01:19:30.748Z,-0.07
2022-11-27T01:22:15.023Z,-0.09
2022-11-27T01:24:59.571Z,-0.07
2022-11-27T01:27:44.144Z,-0.07
2022-11-27T01:30:29.320Z,-0.07
2022-11-27T01:33:14.008Z,-0.05
2022-11-27T01:36:01.055Z,-0.07
2022-11-27T01:38:45.609Z,-0.06
2022-11-27T01:41:36.205Z,-0.06
2022-11-27T01:44:23.847Z,-0.07
2022-11-27T01:47:14.701Z,-0.05
2022-11-27T01:50:08.782Z,-0.07
2022-11-27T01:52:59.129Z,-0.07
2022-11-27T01:55:48.833Z,-0.10
2022-11-27T01:58:34.980Z,-0.08
2022-11-27T02:01:19.936Z,-0.07
2022-11-27T02:04:05.463Z,-0.07
2022-11-27T02:06:50.251Z,-0.07
2022-11-27T02:09:34.876Z,-0.09
2022-11-27T02:12:24.261Z,-0.07
2022-11-27T02:15:43.152Z,-0.09
2022-11-27T02:18:42.349Z,-0.09
2022-11-27T02:21:30.140Z,-0.08
2022-11-27T02:24:28.801Z,-0.09
2022-11-27T02:27:43.021Z,-0.10
2022-11-27T02:30:34.805Z,-0.13
2022-11-27T02:33:21.391Z,-0.10
2022-11-27T02:36:13.689Z,-0.13
2022-11-27T02:39:12.800Z,-0.13
2022-11-27T02:42:16.021Z,-0.12
2022-11-27T02:45:07.119Z,-0.13
2022-11-27T02:47:52.190Z,-0.14
2022-11-27T02:50:40.941Z,-0.16
2022-11-27T02:53:49.073Z,-0.19
2022-11-27T02:56:34.530Z,-0.17
2022-11-27T02:59:21.090Z,-0.16
2022-11-27T03:02:11.407Z,-0.15
2022-11-27T03:04:59.881Z,-0.16
2022-11-27T03:07:53.336Z,-0.16
2022-11-27T03:10:56.488Z,-0.17
2022-11-27T03:13:52.888Z,-0.19
2022-11-27T03:16:57.899Z,-0.20
2022-11-27T03:20:15.808Z,-0.20
2022-11-27T03:23:00.953Z,-0.22
2022-11-27T03:25:45.806Z,-0.23
2022-11-27T03:28:31.957Z,-0.24
2022-11-27T03:31:16.741Z,-0.24
2022-11-27T03:34:01.753Z,-0.24
2022-11-27T03:36:48.464Z,-0.25
2022-11-27T03:39:33.242Z,-0.27
2022-11-27T03:42:57.577Z,-0.28
2022-11-27T03:45:52.938Z,-0.29
2022-11-27T03:49:02.147Z,-0.30
2022-11-27T03:52:01.483Z,-0.30
2022-11-27T03:54:52.709Z,-0.30
2022-11-27T03:57:43.039Z,-0.31
2022-11-27T04:00:37.220Z,-0.31
2022-11-27T04:03:28.990Z,-0.31
2022-11-27T04:06:13.853Z,-0.32
2022-11-27T04:08:58.734Z,-0.31
2022-11-27T04:11:43.457Z,-0.31
2022-11-27T04:14:28.252Z,-0.31
2022-11-27T04:17:12.927Z,-0.31
2022-11-27T04:19:58.189Z,-0.29
2022-11-27T04:22:42.955Z,-0.28
2022-11-27T04:25:27.739Z,-0.28
2022-11-27T04:28:12.468Z,-0.29
2022-11-27T04:30:57.128Z,-0.30
2022-11-27T04:33:41.994Z,-0.29
2022-11-27T04:36:26.448Z,-0.30
2022-11-27T04:39:12.667Z,-0.34
2022-11-27T04:41:57.506Z,-0.32
2022-11-27T04:44:42.439Z,-0.34
2022-11-27T04:47:27.396Z,-0.34
2022-11-27T04:50:11.900Z,-0.33
2022-11-27T04:52:57.158Z,-0.33
2022-11-27T04:55:41.944Z,-0.35
2022-11-27T04:58:26.726Z,-0.36
2022-11-27T05:01:11.645Z,-0.38
2022-11-27T05:03:56.269Z,-0.39
2022-11-27T05:06:41.051Z,-0.40
2022-11-27T05:09:25.498Z,-0.41
2022-11-27T05:12:10.450Z,-0.42
2022-11-27T05:14:54.977Z,-0.43
2022-11-27T05:17:39.609Z,-0.44
2022-11-27T05:20:23.924Z,-0.46
2022-11-27T05:23:08.449Z,-0.49
2022-11-27T05:25:53.238Z,-0.48
2022-11-27T05:28:37.677Z,-0.49
2022-11-27T05:31:22.687Z,-0.49
2022-11-27T05:34:07.645Z,-0.52
2022-11-27T05:36:52.628Z,-0.52
2022-11-27T05:39:37.001Z,-0.55
2022-11-27T05:42:22.019Z,-0.53
2022-11-27T05:45:07.042Z,-0.55
2022-11-27T05:47:52.164Z,-0.54
2022-11-27T05:50:36.896Z,-0.52
2022-11-27T05:53:23.029Z,-0.52
2022-11-27T05:56:10.337Z,-0.55
2022-11-27T05:58:54.874Z,-0.53
2022-11-27T06:01:39.583Z,-0.53
2022-11-27T06:04:24.358Z,-0.51
2022-11-27T06:07:09.085Z,-0.51
2022-11-27T06:09:54.093Z,-0.49
2022-11-27T06:12:38.746Z,-0.46
2022-11-27T06:15:23.365Z,-0.43
2022-11-27T06:18:10.105Z,-0.40
2022-11-27T06:20:54.852Z,-0.40
2022-11-27T06:23:43.119Z,-0.37
2022-11-27T06:26:30.437Z,-0.37
2022-11-27T06:29:15.004Z,-0.34
2022-11-27T06:32:00.205Z,-0.30
2022-11-27T06:34:44.818Z,-0.26
2022-11-27T06:37:30.147Z,-0.23
2022-11-27T06:40:14.962Z,-0.23
2022-11-27T06:42:59.997Z,-0.22
2022-11-27T06:45:53.630Z,-0.21
2022-11-27T06:48:38.569Z,-0.17
2022-11-27T06:51:26.225Z,-0.14
2022-11-27T06:54:11.058Z,-0.12
2022-11-27T06:56:55.761Z,-0.10
2022-11-27T06:59:40.485Z,-0.07
2022-11-27T07:02:25.086Z,-0.01
2022-11-27T07:05:09.801Z,0.07
2022-11-27T07:07:54.955Z,0.16
2022-11-27T07:10:39.567Z,0.24
2022-11-27T07:13:24.092Z,0.27
2022-11-27T07:16:10.164Z,0.34
2022-11-27T07:18:59.127Z,0.33
2022-11-27T07:21:43.989Z,0.33
2022-11-27T07:24:28.819Z,0.34
2022-11-27T07:27:14.075Z,0.40
2022-11-27T07:29:58.828Z,0.43
2022-11-27T07:32:43.503Z,0.44
2022-11-27T07:35:28.225Z,0.48
2022-11-27T07:38:13.113Z,0.50
2022-11-27T07:41:01.810Z,0.48
2022-11-27T07:43:47.238Z,0.44
2022-11-27T07:46:31.959Z,0.38
2022-11-27T07:49:16.691Z,0.36
2022-11-27T07:52:01.289Z,0.32
2022-11-27T07:54:45.736Z,0.31
2022-11-27T07:57:30.374Z,0.34
2022-11-27T08:00:15.109Z,0.49
2022-11-27T08:03:00.961Z,0.61
2022-11-27T08:05:45.452Z,0.71
2022-11-27T08:08:30.566Z,0.85
2022-11-27T08:11:19.860Z,0.87
2022-11-27T08:14:06.723Z,0.94
2022-11-27T08:16:51.430Z,1.01
2022-11-27T08:19:36.181Z,1.12
2022-11-27T08:22:20.937Z,1.11
2022-11-27T08:25:06.421Z,1.13
2022-11-27T08:27:51.283Z,1.14
2022-11-27T08:30:35.927Z,1.13
2022-11-27T08:33:20.363Z,1.19
2022-11-27T08:36:08.110Z,1.19
2022-11-27T08:38:54.702Z,1.28
2022-11-27T08:41:39.655Z,1.35
2022-11-27T08:44:24.605Z,1.46
2022-11-27T08:47:09.154Z,1.40
2022-11-27T08:49:53.847Z,1.42
2022-11-27T08:52:38.386Z,1.41
2022-11-27T08:55:22.952Z,1.32
2022-11-27T08:58:07.733Z,1.27
2022-11-27T09:00:52.436Z,1.26
2022-11-27T09:03:37.543Z,1.26
2022-11-27T09:06:24.519Z,1.29
2022-11-27T09:09:09.488Z,1.31
2022-11-27T09:11:54.631Z,1.28
2022-11-27T09:14:39.740Z,1.30
2022-11-27T09:17:25.020Z,1.32
2022-11-27T09:20:09.988Z,1.33
2022-11-27T09:22:54.866Z,1.32
2022-11-27T09:25:39.537Z,1.39
2022-11-27T09:28:28.196Z,1.55
2022-11-27T09:31:16.157Z,1.69
2022-11-27T09:34:00.582Z,1.81
2022-11-27T09:36:45.341Z,1.90
2022-11-27T09:39:33.263Z,1.99
2022-11-27T09:42:39.362Z,2.13
2022-11-27T09:45:26.315Z,2.23
2022-11-27T09:48:17.081Z,2.26
2022-11-27T09:51:09.425Z,2.36
2022-11-27T09:54:22.254Z,2.51
2022-11-27T09:57:14.989Z,2.51
2022-11-27T10:00:06.624Z,2.51
2022-11-27T10:02:51.595Z,2.47
2022-11-27T10:05:47.495Z,2.40
2022-11-27T10:09:13.621Z,2.35
2022-11-27T10:12:26.194Z,2.37
2022-11-27T10:15:51.220Z,2.56
2022-11-27T10:18:46.014Z,2.44
2022-11-27T10:21:33.862Z,2.54
2022-11-27T10:24:30.372Z,2.59
2022-11-27T10:27:40.060Z,2.72
2022-11-27T10:30:28.915Z,2.80
2022-11-27T10:33:19.641Z,2.78
2022-11-27T10:36:10.066Z,2.75
2022-11-27T10:38:57.467Z,2.77
2022-11-27T10:41:52.152Z,2.76
2022-11-27T10:45:02.264Z,2.72
2022-11-27T10:47:47.729Z,2.53
2022-11-27T10:50:33.129Z,2.51
2022-11-27T10:53:35.521Z,2.39
2022-11-27T10:56:44.899Z,2.45
2022-11-27T10:59:35.229Z,2.33
2022-11-27T11:02:37.268Z,2.29
2022-11-27T11:05:37.764Z,2.26
2022-11-27T11:08:29.825Z,2.23
2022-11-27T11:11:25.504Z,2.16
2022-11-27T11:14:22.819Z,2.04
2022-11-27T11:17:16.286Z,1.96
2022-11-27T11:20:21.380Z,1.79
2022-11-27T11:23:06.265Z,1.71
2022-11-27T11:25:53.981Z,1.75
2022-11-27T11:28:50.190Z,1.83
2022-11-27T11:31:39.305Z,1.93
2022-11-27T11:34:29.473Z,1.97
2022-11-27T11:37:20.366Z,1.97
2022-11-27T11:40:22.767Z,1.96
2022-11-27T11:43:25.103Z,1.93
2022-11-27T11:46:21.896Z,1.94
2022-11-27T11:49:18.965Z,1.86
2022-11-27T11:52:21.239Z,1.77
2022-11-27T11:55:18.067Z,1.68
2022-11-27T11:58:25.745Z,1.64
2022-11-27T12:01:53.308Z,1.58
2022-11-27T12:04:53.270Z,1.54
2022-11-27T12:07:53.455Z,1.45
2022-11-27T12:10:53.897Z,1.36
2022-11-27T12:13:53.482Z,1.38
2022-11-27T12:16:59.830Z,1.34
2022-11-27T12:20:03.612Z,1.32
2022-11-27T12:23:06.540Z,1.30
2022-11-27T12:26:14.568Z,1.25
2022-11-27T12:29:02.011Z,1.29
2022-11-27T12:31:52.585Z,1.20
2022-11-27T12:34:58.834Z,1.11
2022-11-27T12:38:05.165Z,0.98
2022-11-27T12:41:11.222Z,0.91
2022-11-27T12:43:59.612Z,0.81
2022-11-27T12:47:41.443Z,0.74
2022-11-27T12:50:32.201Z,0.69
2022-11-27T12:53:44.520Z,0.60
2022-11-27T12:56:39.832Z,0.55
2022-11-27T12:59:32.553Z,0.49
2022-11-27T13:02:34.758Z,0.43
2022-11-27T13:05:25.976Z,0.39
2022-11-27T13:08:23.139Z,0.34
2022-11-27T13:11:13.086Z,0.31
2022-11-27T13:14:18.178Z,0.28
2022-11-27T13:17:08.187Z,0.26
2022-11-27T13:19:53.323Z,0.21
2022-11-27T13:22:38.666Z,0.23
2022-11-27T13:25:25.203Z,0.22
2022-11-27T13:28:22.496Z,0.24
2022-11-27T13:31:08.972Z,0.23
2022-11-27T13:34:00.699Z,0.23
2022-11-27T13:36:54.347Z,0.21
2022-11-27T13:39:41.981Z,0.16
2022-11-27T13:42:28.008Z,0.18
2022-11-27T13:45:26.132Z,0.17
2022-11-27T13:48:33.083Z,0.14
2022-11-27T13:51:28.103Z,0.14
2022-11-27T13:54:19.937Z,0.11
2022-11-27T13:57:11.672Z,0.07
2022-11-27T14:00:19.058Z,0.02
2022-11-27T14:03:04.839Z,-0.02
2022-11-27T14:05:50.016Z,-0.05
2022-11-27T14:08:34.670Z,-0.05
2022-11-27T14:11:33.837Z,-0.07
2022-11-27T14:14:22.191Z,-0.07
2022-11-27T14:17:25.403Z,-0.10
2022-11-27T14:20:10.717Z,-0.08
2022-11-27T14:23:11.849Z,-0.11
2022-11-27T14:26:21.592Z,-0.13
2022-11-27T14:29:11.468Z,-0.14
2022-11-27T14:32:01.032Z,-0.12
2022-11-27T14:34:47.993Z,-0.11
2022-11-27T14:37:32.492Z,-0.11
2022-11-27T14:40:35.682Z,-0.13
2022-11-27T14:43:23.370Z,-0.12
2022-11-27T14:46:16.245Z,-0.10
2022-11-27T14:49:00.987Z,-0.10
2022-11-27T14:51:47.124Z,-0.10
2022-11-27T14:54:34.864Z,-0.14
2022-11-27T14:57:24.754Z,-0.13
2022-11-27T15:00:18.595Z,-0.14
2022-11-27T15:03:08.724Z,-0.15
2022-11-27T15:05:57.936Z,-0.16
2022-11-27T15:08:57.932Z,-0.15
2022-11-27T15:11:56.925Z,-0.17
2022-11-27T15:14:57.424Z,-0.18
2022-11-27T15:17:46.873Z,-0.20
2022-11-27T15:20:44.370Z,-0.20
2022-11-27T15:23:31.542Z,-0.22
2022-11-27T15:26:28.548Z,-0.23
2022-11-27T15:29:58.093Z,-0.25
2022-11-27T15:32:52.073Z,-0.27
2022-11-27T15:35:36.772Z,-0.25
2022-11-27T15:38:21.442Z,-0.28
2022-11-27T15:41:17.884Z,-0.29
2022-11-27T15:44:02.605Z,-0.32
2022-11-27T15:46:47.221Z,-0.32
2022-11-27T15:49:32.070Z,-0.34
2022-11-27T15:52:16.888Z,-0.34
2022-11-27T15:55:01.465Z,-0.34
2022-11-27T15:57:46.107Z,-0.35
2022-11-27T16:00:31.088Z,-0.31
2022-11-27T16:03:15.482Z,-0.31
2022-11-27T16:06:07.769Z,-0.30
2022-11-27T16:08:56.943Z,-0.30
2022-11-27T16:11:41.860Z,-0.30
2022-11-27T16:14:26.816Z,-0.27
2022-11-27T16:17:11.585Z,-0.25
2022-11-27T16:19:56.295Z,-0.29
2022-11-27T16:22:41.572Z,-0.30
2022-11-27T16:25:26.318Z,-0.32
2022-11-27T16:28:10.897Z,-0.34
2022-11-27T16:30:57.380Z,-0.33
2022-11-27T16:33:41.934Z,-0.34
2022-11-27T16:36:28.077Z,-0.36
2022-11-27T16:39:13.898Z,-0.38
2022-11-27T16:41:59.274Z,-0.38
2022-11-27T16:44:44.143Z,-0.39
2022-11-27T16:47:33.471Z,-0.40
2022-11-27T16:50:19.015Z,-0.37
2022-11-27T16:53:03.978Z,-0.40
2022-11-27T16:55:49.312Z,-0.39
2022-11-27T16:58:40.434Z,-0.39
2022-11-27T17:01:29.249Z,-0.39
2022-11-27T17:04:17.631Z,-0.38
2022-11-27T17:07:02.359Z,-0.35
2022-11-27T17:09:47.415Z,-0.34
2022-11-27T17:12:32.560Z,-0.35
2022-11-27T17:15:17.474Z,-0.37
2022-11-27T17:18:02.436Z,-0.36
2022-11-27T17:20:48.559Z,-0.38
2022-11-27T17:23:37.016Z,-0.40
2022-11-27T17:26:23.732Z,-0.40
2022-11-27T17:29:13.450Z,-0.40
2022-11-27T17:32:00.957Z,-0.42
2022-11-27T17:34:48.377Z,-0.42
2022-11-27T17:37:33.891Z,-0.46
2022-11-27T17:40:18.561Z,-0.45
2022-11-27T17:43:06.425Z,-0.48
2022-11-27T17:45:51.629Z,-0.46
2022-11-27T17:48:37.139Z,-0.47
2022-11-27T17:51:21.990Z,-0.44
2022-11-27T17:54:07.026Z,-0.42
2022-11-27T17:56:53.958Z,-0.41
2022-11-27T17:59:39.636Z,-0.39
2022-11-27T18:02:26.889Z,-0.38
2022-11-27T18:05:11.710Z,-0.39
2022-11-27T18:07:58.556Z,-0.38
2022-11-27T18:10:45.459Z,-0.37
2022-11-27T18:13:31.746Z,-0.36
2022-11-27T18:16:25.152Z,-0.39
2022-11-27T18:19:12.325Z,-0.38
2022-11-27T18:22:01.696Z,-0.37
2022-11-27T18:24:48.301Z,-0.37
2022-11-27T18:27:33.677Z,-0.37
2022-11-27T18:30:18.616Z,-0.40
2022-11-27T18:33:03.325Z,-0.47
2022-11-27T18:35:51.989Z,-0.49
2022-11-27T18:38:40.748Z,-0.52
2022-11-27T18:41:27.644Z,-0.49
2022-11-27T18:44:16.259Z,-0.53
2022-11-27T18:47:03.639Z,-0.54
2022-11-27T18:49:48.662Z,-0.52
2022-11-27T18:52:38.566Z,-0.50
2022-11-27T18:55:23.788Z,-0.53
2022-11-27T18:58:13.368Z,-0.54
2022-11-27T19:01:00.036Z,-0.60
2022-11-27T19:03:47.360Z,-0.62
2022-11-27T19:06:34.505Z,-0.64
2022-11-27T19:09:20.984Z,-0.66
2022-11-27T19:12:07.389Z,-0.65
2022-11-27T19:14:52.663Z,-0.63
2022-11-27T19:17:40.234Z,-0.63
2022-11-27T19:20:29.243Z,-0.68
2022-11-27T19:23:17.066Z,-0.71
2022-11-27T19:26:11.573Z,-0.73
2022-11-27T19:29:01.068Z,-0.72
2022-11-27T19:31:46.086Z,-0.76
2022-11-27T19:34:31.707Z,-0.80
2022-11-27T19:37:28.877Z,-0.83
2022-11-27T19:40:19.321Z,-0.87
2022-11-27T19:43:08.533Z,-0.85
2022-11-27T19:46:02.937Z,-0.84
2022-11-27T19:48:48.324Z,-0.85
2022-11-27T19:51:36.015Z,-0.83
2022-11-27T19:54:21.906Z,-0.84
2022-11-27T19:57:07.896Z,-0.85
2022-11-27T19:59:52.651Z,-0.87
2022-11-27T20:02:37.885Z,-0.86
2022-11-27T20:05:22.925Z,-0.89
2022-11-27T20:08:08.402Z,-0.87
2022-11-27T20:10:55.047Z,-0.85
2022-11-27T20:13:40.202Z,-0.84
2022-11-27T20:16:26.258Z,-0.84
2022-11-27T20:19:11.925Z,-0.89
2022-11-27T20:21:56.788Z,-0.93
2022-11-27T20:25:03.989Z,-0.92
2022-11-27T20:27:46.116Z,-0.90
2022-11-27T20:30:33.603Z,-0.91
2022-11-27T20:33:19.036Z,-0.93
2022-11-27T20:36:14.452Z,-0.92
2022-11-27T20:39:00.096Z,-0.89
2022-11-27T20:41:46.704Z,-0.89
2022-11-27T20:44:31.639Z,-0.88
2022-11-27T20:47:16.579Z,-0.86
2022-11-27T20:50:02.334Z,-0.85
2022-11-27T20:52:47.376Z,-0.83
2022-11-27T20:55:33.045Z,-0.81
2022-11-27T20:58:17.804Z,-0.78
2022-11-27T21:01:22.805Z,-0.78
2022-11-27T21:04:18.284Z,-0.82
2022-11-27T21:07:03.436Z,-0.82
2022-11-27T21:09:48.301Z,-0.80
2022-11-27T21:12:33.515Z,-0.82
2022-11-27T21:15:18.387Z,-0.81
2022-11-27T21:18:02.828Z,-0.86
2022-11-27T21:20:48.318Z,-0.85
2022-11-27T21:23:34.081Z,-0.88
2022-11-27T21:26:18.946Z,-0.86
2022-11-27T21:29:03.752Z,-0.85
2022-11-27T21:31:49.455Z,-0.90
2022-11-27T21:34:34.525Z,-0.90
2022-11-27T21:37:19.382Z,-0.85
2022-11-27T21:40:05.819Z,-0.87
2022-11-27T21:42:51.376Z,-0.90
2022-11-27T21:45:36.804Z,-0.90
2022-11-27T21:48:21.427Z,-0.88
2022-11-27T21:51:12.054Z,-0.89
2022-11-27T21:53:58.397Z,-0.90
2022-11-27T21:56:43.461Z,-0.87
2022-11-27T21:59:28.205Z,-0.87
2022-11-27T22:02:12.717Z,-0.89
2022-11-27T22:04:57.224Z,-0.93
2022-11-27T22:07:41.993Z,-0.90
2022-11-27T22:10:26.776Z,-0.90
2022-11-27T22:13:11.329Z,-0.91
2022-11-27T22:15:55.774Z,-0.90
2022-11-27T22:18:41.903Z,-0.88
2022-11-27T22:21:29.109Z,-0.87
2022-11-27T22:24:18.791Z,-0.87
2022-11-27T22:27:08.676Z,-0.87
2022-11-27T22:29:53.549Z,-0.86
2022-11-27T22:32:38.055Z,-0.86
2022-11-27T22:35:24.164Z,-0.86
2022-11-27T22:38:09.227Z,-0.84
2022-11-27T22:40:57.978Z,-0.86
2022-11-27T22:43:43.530Z,-0.85
2022-11-27T22:46:33.094Z,-0.87
2022-11-27T22:49:18.356Z,-0.89
2022-11-27T22:52:03.169Z,-0.88
2022-11-27T22:54:48.017Z,-0.89
2022-11-27T22:57:33.498Z,-0.88
2022-11-27T23:00:18.425Z,-0.86
2022-11-27T23:03:03.955Z,-0.87
2022-11-27T23:05:49.401Z,-0.84
2022-11-27T23:08:33.873Z,-0.81
2022-11-27T23:11:24.551Z,-0.83
2022-11-27T23:14:09.117Z,-0.81
2022-11-27T23:16:53.898Z,-0.80
2022-11-27T23:19:38.882Z,-0.82
2022-11-27T23:22:23.482Z,-0.82
2022-11-27T23:25:08.423Z,-0.84
2022-11-27T23:27:53.084Z,-0.84
2022-11-27T23:30:38.051Z,-0.81
2022-11-27T23:33:22.953Z,-0.80
2022-11-27T23:36:07.897Z,-0.81
2022-11-27T23:38:52.629Z,-0.82
2022-11-27T23:41:39.040Z,-0.83
2022-11-27T23:44:23.487Z,-0.87
2022-11-27T23:47:08.148Z,-0.89
2022-11-27T23:49:52.584Z,-0.89
2022-11-27T23:52:37.029Z,-0.89
2022-11-27T23:55:21.462Z,-0.90
2022-11-27T23:58:06.139Z,-0.90
